Main page
METAR-TAF:

METAR-TAF

Airports :

Bolzano, Italy

latitude: 46-28N, longitude: 011-20E, elevation: 262 m

Current weather observation

The report was made 17 minutes ago, at 15:50 UTC
Wind 5 kt from the South
Temperature 22°C
Humidity 50%
Pressure 1019 hPa
Visibility 10 km or more
no clouds below 1500 m and no cumulonimbus

METAR: LIPB 261550Z 17005KT CAVOK 22/11 Q1019

Time: 18:07 (16:07 UTC)

Forecast

The report was made 5 hours and 7 minutes ago, at 11:00 UTC
Forecast valid from 26 at 12 UTC to 27 at 12 UTC
Wind 6 kt from variable directions
Visibility 10 km or more
Scattered clouds at a height of 4000 ft

TAF: LIPB 261100Z 2612/2712 VRB06KT 9999 SCT040

Weather observations and forecasts of more than 4000 airports (METAR and TAF reports).

The available stations are represented by yellow and red dots on the map.

Hover mouse over dot to see the name of the station.

Then click to see weather observations and forecasts.

To change the map : click on the green buttons with a black cross to zoom in, on the green button with a dash to zoom out, or on the green arrows for adjacent maps.


METAR-TAF: